createdAt,value
2016-10-26T00:00:03.383Z,81.16
2016-10-26T00:00:43.866Z,81.26
2016-10-26T00:01:24.344Z,81.59
2016-10-26T00:02:04.827Z,81.65
2016-10-26T00:02:45.277Z,81.45
2016-10-26T00:03:25.717Z,81.45
2016-10-26T00:04:06.188Z,81.26
2016-10-26T00:04:46.669Z,81.84
2016-10-26T00:05:27.124Z,81.16
2016-10-26T00:06:07.564Z,81.3
2016-10-26T00:06:48.027Z,81.45
2016-10-26T00:07:28.508Z,81.26
2016-10-26T00:08:08.967Z,81.84
2016-10-26T00:08:49.413Z,81.65
2016-10-26T00:09:29.855Z,81.74
2016-10-26T00:10:10.293Z,81.93
2016-10-26T00:10:50.769Z,81.93
2016-10-26T00:11:31.213Z,81.55
2016-10-26T00:12:11.692Z,82.22
2016-10-26T00:12:52.151Z,82.03
2016-10-26T00:13:32.603Z,81.74
2016-10-26T00:14:13.061Z,81.07
2016-10-26T00:14:53.485Z,81.36
2016-10-26T00:15:33.928Z,81.65
2016-10-26T00:16:14.386Z,81.26
2016-10-26T00:16:54.856Z,81.93
2016-10-26T00:17:35.388Z,81.84
2016-10-26T00:18:15.709Z,81.74
2016-10-26T00:18:56.151Z,81.55
2016-10-26T00:19:36.581Z,82.31
2016-10-26T00:20:17.050Z,82.6
2016-10-26T00:20:57.482Z,82.7
2016-10-26T00:21:37.957Z,82.31
2016-10-26T00:22:18.400Z,82.31
2016-10-26T00:22:58.894Z,82.51
2016-10-26T00:23:39.334Z,82.41
2016-10-26T00:24:19.760Z,82.41
2016-10-26T00:25:00.250Z,82.51
2016-10-26T00:25:40.701Z,82.12
2016-10-26T00:26:21.155Z,82.31
2016-10-26T00:27:01.899Z,82.6
2016-10-26T00:27:42.227Z,82.7
2016-10-26T00:28:22.752Z,82.31
2016-10-26T00:29:03.197Z,82.7
2016-10-26T00:29:43.593Z,83.08
2016-10-26T00:30:24.057Z,82.41
2016-10-26T00:31:04.448Z,82.51
2016-10-26T00:31:44.906Z,82.6
2016-10-26T00:32:25.680Z,82.31
2016-10-26T00:34:41.434Z,82.12
2016-10-26T00:35:22.197Z,83.08
2016-10-26T00:36:02.674Z,82.41
2016-10-26T00:36:43.760Z,83.27
2016-10-26T00:37:24.255Z,83.27
2016-10-26T00:38:04.756Z,83.08
2016-10-26T00:38:45.195Z,83.08
2016-10-26T00:39:25.698Z,82.98
2016-10-26T00:40:06.169Z,82.98
2016-10-26T00:40:46.630Z,82.98
2016-10-26T00:41:28.719Z,82.84
2016-10-26T00:42:09.158Z,82.84
2016-10-26T00:42:49.624Z,82.94
2016-10-26T00:43:30.055Z,83.33
2016-10-26T00:44:10.787Z,83.51
2016-10-26T00:44:51.239Z,83.51
2016-10-26T00:45:33.424Z,83.7
2016-10-26T00:46:13.991Z,83.61
2016-10-26T00:46:54.447Z,83.7
2016-10-26T00:47:34.883Z,83.7
2016-10-26T00:48:15.332Z,83.99
2016-10-26T00:48:55.796Z,84.09
2016-10-26T00:49:36.270Z,84.19
2016-10-26T00:50:16.714Z,84.38
2016-10-26T00:50:57.164Z,84.38
2016-10-26T00:51:37.651Z,84.19
2016-10-26T00:52:18.117Z,84.19
2016-10-26T00:52:58.553Z,84.56
2016-10-26T00:53:39.033Z,83.99
2016-10-26T00:54:19.523Z,83.8
2016-10-26T00:54:59.940Z,83.9
2016-10-26T00:55:40.416Z,83.8
2016-10-26T00:56:20.878Z,83.51
2016-10-26T00:57:01.320Z,83.42
2016-10-26T00:57:41.822Z,83.8
2016-10-26T00:58:22.237Z,83.51
2016-10-26T00:59:02.700Z,83.99
2016-10-26T00:59:43.160Z,83.61
2016-10-26T01:00:23.597Z,83.8
2016-10-26T01:01:04.049Z,84.66
2016-10-26T01:01:44.544Z,84.56
2016-10-26T01:02:25.101Z,84.56
2016-10-26T01:03:05.561Z,84.19
2016-10-26T01:03:46.052Z,84.09
2016-10-26T01:04:26.490Z,84.19
2016-10-26T01:05:06.965Z,84.19
2016-10-26T01:05:47.427Z,84.56
2016-10-26T01:06:27.903Z,84.66
2016-10-26T01:07:08.347Z,84.38
2016-10-26T01:07:48.838Z,84.56
2016-10-26T01:08:29.285Z,84.38
2016-10-26T01:09:09.733Z,83.8
2016-10-26T01:09:50.205Z,83.9
2016-10-26T01:10:30.664Z,83.9
2016-10-26T01:11:11.137Z,83.61
2016-10-26T01:11:51.629Z,83.7
2016-10-26T01:12:32.111Z,83.99
2016-10-26T01:13:12.584Z,83.42
2016-10-26T01:13:53.046Z,83.99
2016-10-26T01:14:33.525Z,83.42
2016-10-26T01:15:13.959Z,83.61
2016-10-26T01:15:54.395Z,83.42
2016-10-26T01:16:34.863Z,83.8
2016-10-26T01:17:15.327Z,84.76
2016-10-26T01:17:55.786Z,84.28
2016-10-26T01:18:36.253Z,83.7
2016-10-26T01:19:16.733Z,84.38
2016-10-26T01:19:57.166Z,84.28
2016-10-26T01:20:37.635Z,84.19
2016-10-26T01:21:18.104Z,84.47
2016-10-26T01:21:58.571Z,84.19
2016-10-26T01:22:39.049Z,84.19
2016-10-26T01:23:19.515Z,84.56
2016-10-26T01:23:59.991Z,84.38
2016-10-26T01:24:40.448Z,84.19
2016-10-26T01:25:20.925Z,84.28
2016-10-26T01:26:01.418Z,84.47
2016-10-26T01:26:41.869Z,84.38
2016-10-26T01:27:22.336Z,83.9
2016-10-26T01:28:02.802Z,84.38
2016-10-26T01:28:43.275Z,84.28
2016-10-26T01:29:23.740Z,84.38
2016-10-26T01:30:04.215Z,84.47
2016-10-26T01:30:44.688Z,84.38
2016-10-26T01:31:25.141Z,84.19
2016-10-26T01:32:05.599Z,84.38
2016-10-26T01:32:46.066Z,84.19
2016-10-26T01:33:26.535Z,84.28
2016-10-26T01:34:07.000Z,84.38
2016-10-26T01:34:47.472Z,84.19
2016-10-26T01:35:27.948Z,84.28
2016-10-26T01:36:08.419Z,84.28
2016-10-26T01:36:48.893Z,84.38
2016-10-26T01:37:29.359Z,84.28
2016-10-26T01:38:10.562Z,84.19
2016-10-26T01:38:51.087Z,84.28
2016-10-26T01:39:31.548Z,84.38
2016-10-26T01:40:12.031Z,84.47
2016-10-26T01:40:52.479Z,84.28
2016-10-26T01:41:32.943Z,83.7
2016-10-26T01:42:13.423Z,84.38
2016-10-26T01:42:53.900Z,84.38
2016-10-26T01:43:34.370Z,84.38
2016-10-26T01:44:14.842Z,84.19
2016-10-26T01:44:55.298Z,84.56
2016-10-26T01:45:35.783Z,84.56
2016-10-26T01:46:16.236Z,84.85
2016-10-26T01:46:56.694Z,84.66
2016-10-26T01:47:37.155Z,84.85
2016-10-26T01:48:17.603Z,84.23
2016-10-26T01:48:58.064Z,84.72
2016-10-26T01:49:38.530Z,84.76
2016-10-26T01:50:19.005Z,84.33
2016-10-26T01:50:59.443Z,84.56
2016-10-26T01:51:39.915Z,84.38
2016-10-26T01:52:20.448Z,84.38
2016-10-26T01:53:00.900Z,84.38
2016-10-26T01:53:41.379Z,84.09
2016-10-26T01:54:21.873Z,84.38
2016-10-26T01:55:02.330Z,84.19
2016-10-26T01:55:42.792Z,84.52
2016-10-26T01:56:23.257Z,83.76
2016-10-26T01:57:03.721Z,84.38
2016-10-26T01:57:44.197Z,84.47
2016-10-26T01:58:24.652Z,84.47
2016-10-26T01:59:05.116Z,85.24
2016-10-26T01:59:45.596Z,84.38
2016-10-26T02:00:26.075Z,84.56
2016-10-26T02:01:06.542Z,84.56
2016-10-26T02:01:47.005Z,84.47
2016-10-26T02:02:27.486Z,84.66
2016-10-26T02:03:07.932Z,84.56
2016-10-26T02:03:50.190Z,84.76
2016-10-26T02:04:30.739Z,85.29
2016-10-26T02:05:11.179Z,85.19
2016-10-26T02:05:51.651Z,84.76
2016-10-26T02:06:32.110Z,85.14
2016-10-26T02:07:12.613Z,84.81
2016-10-26T02:07:53.085Z,85.1
2016-10-26T02:08:33.541Z,85.58
2016-10-26T02:09:13.971Z,85.1
2016-10-26T02:09:54.435Z,85
2016-10-26T02:10:34.913Z,85.58
2016-10-26T02:11:15.412Z,85.77
2016-10-26T02:11:55.842Z,85.67
2016-10-26T02:12:36.319Z,85.58
2016-10-26T02:13:16.772Z,85.86
2016-10-26T02:13:57.239Z,86.15
2016-10-26T02:14:37.710Z,86.24
2016-10-26T02:15:18.177Z,86.24
2016-10-26T02:15:58.624Z,85.86
2016-10-26T02:16:39.102Z,85.96
2016-10-26T02:17:19.572Z,86.15
2016-10-26T02:18:00.039Z,86.43
2016-10-26T02:18:40.471Z,86.15
2016-10-26T02:19:20.929Z,85.96
2016-10-26T02:20:01.396Z,85.96
2016-10-26T02:20:41.845Z,85.96
2016-10-26T02:21:22.297Z,85.96
2016-10-26T02:22:02.769Z,85.96
2016-10-26T02:22:43.233Z,86.24
2016-10-26T02:23:23.696Z,86.05
2016-10-26T02:24:04.184Z,85.86
2016-10-26T02:24:44.638Z,85.96
2016-10-26T02:25:25.105Z,86.24
2016-10-26T02:26:05.590Z,86.34
2016-10-26T02:26:46.027Z,86.63
2016-10-26T02:27:26.502Z,85.96
2016-10-26T02:28:06.949Z,86.72
2016-10-26T02:28:47.405Z,86.53
2016-10-26T02:29:27.851Z,86.82
2016-10-26T02:30:08.310Z,86.43
2016-10-26T02:30:48.766Z,86.63
2016-10-26T02:31:29.219Z,86.24
2016-10-26T02:32:09.700Z,86.82
2016-10-26T02:32:50.149Z,86.82
2016-10-26T02:33:30.625Z,86.53
2016-10-26T02:34:11.084Z,86.82
2016-10-26T02:34:51.581Z,86.63
2016-10-26T02:35:32.050Z,86.82
2016-10-26T02:37:19.985Z,86.77
2016-10-26T02:38:00.444Z,86.53
2016-10-26T02:38:40.917Z,86.58
2016-10-26T02:39:21.394Z,86.68
2016-10-26T02:40:01.855Z,86.68
2016-10-26T02:40:42.328Z,86.91
2016-10-26T02:41:22.792Z,86.58
2016-10-26T02:42:03.279Z,86.53
2016-10-26T02:42:43.741Z,86.77
2016-10-26T02:43:24.205Z,86.77
2016-10-26T02:44:04.677Z,86.77
2016-10-26T02:44:45.152Z,86.58
2016-10-26T02:45:25.611Z,86.68
2016-10-26T02:46:06.082Z,86.49
2016-10-26T02:46:46.551Z,86.68
2016-10-26T02:47:27.028Z,86.68
2016-10-26T02:48:07.496Z,86.77
2016-10-26T02:48:47.970Z,86.77
2016-10-26T02:49:28.432Z,86.49
2016-10-26T02:50:08.891Z,86.68
2016-10-26T02:50:49.356Z,86.77
2016-10-26T02:51:29.816Z,87.15
2016-10-26T02:52:10.273Z,87.15
2016-10-26T02:52:50.746Z,87.15
2016-10-26T02:53:31.228Z,86.77
2016-10-26T02:54:11.711Z,86.77
2016-10-26T02:54:52.172Z,86.77
2016-10-26T02:55:32.641Z,86.87
2016-10-26T02:56:13.132Z,86.96
2016-10-26T02:56:53.636Z,86.96
2016-10-26T02:57:34.055Z,86.87
2016-10-26T02:58:14.480Z,86.77
2016-10-26T02:58:54.922Z,86.68
2016-10-26T02:59:35.393Z,86.68
2016-10-26T03:00:15.868Z,86.77
2016-10-26T03:00:56.338Z,86.77
2016-10-26T03:01:36.785Z,86.49
2016-10-26T03:02:17.275Z,86.39
2016-10-26T03:02:57.705Z,86.3
2016-10-26T03:03:38.123Z,85.72
2016-10-26T03:04:18.585Z,85.91
2016-10-26T03:04:59.065Z,86.01
2016-10-26T03:05:39.458Z,85.53
2016-10-26T03:06:19.921Z,85.91
2016-10-26T03:07:00.398Z,86.01
2016-10-26T03:07:40.848Z,85.72
2016-10-26T03:08:21.306Z,85.53
2016-10-26T03:09:01.771Z,84.96
2016-10-26T03:09:42.233Z,86.39
2016-10-26T03:10:22.691Z,85.25
2016-10-26T03:11:03.143Z,85.25
2016-10-26T03:11:43.613Z,85.72
2016-10-26T03:12:24.075Z,85.82
2016-10-26T03:13:04.525Z,85.15
2016-10-26T03:13:45.025Z,85.86
2016-10-26T03:14:25.489Z,85.86
2016-10-26T03:15:05.953Z,85.48
2016-10-26T03:15:46.425Z,85.25
2016-10-26T03:16:26.904Z,85.05
2016-10-26T03:17:07.370Z,85.72
2016-10-26T03:17:47.853Z,84.48
2016-10-26T07:30:00.487Z,85.31
2016-10-26T07:31:22.638Z,83.68
2016-10-26T07:32:03.098Z,86.08
2016-10-26T07:32:43.564Z,83.78
2016-10-26T07:33:24.029Z,83.87
2016-10-26T07:35:23.533Z,84.55
2016-10-26T07:36:04.190Z,84.92
2016-10-26T07:36:44.664Z,85.31
2016-10-26T07:37:25.539Z,81.67
2016-10-26T07:38:05.988Z,80.33
2016-10-26T07:38:46.559Z,82.06
2016-10-26T07:39:27.090Z,81.86
2016-10-26T07:40:08.608Z,82.82
2016-10-26T07:42:21.744Z,85.98
2016-10-26T07:43:02.150Z,84.74
2016-10-26T07:43:42.542Z,82.73
2016-10-26T07:44:23.048Z,81.1
2016-10-26T07:45:03.516Z,80.81
2016-10-26T07:45:43.931Z,80.38
2016-10-26T07:46:24.372Z,77.8
2016-10-26T07:47:05.163Z,78.66
2016-10-26T07:47:45.604Z,81.54
2016-10-26T07:48:26.012Z,82.68
2016-10-26T07:50:14.286Z,81.54
2016-10-26T07:50:54.625Z,81.86
2016-10-26T07:51:35.023Z,82.24
2016-10-26T07:52:15.526Z,79.75
2016-10-26T07:52:55.910Z,81.29
2016-10-26T07:53:36.365Z,78.51
2016-10-26T07:54:16.763Z,77.7
2016-10-26T07:54:57.210Z,78.19
2016-10-26T07:55:37.610Z,82.06
2016-10-26T07:56:18.111Z,82.15
2016-10-26T07:56:58.495Z,84.74
2016-10-26T07:57:38.974Z,85.6
2016-10-26T07:58:19.409Z,79.66
2016-10-26T07:58:59.911Z,82.01
2016-10-26T07:59:40.366Z,84.69
2016-10-26T08:00:20.774Z,84.26
2016-10-26T08:01:01.258Z,82.78
2016-10-26T08:01:41.710Z,81
2016-10-26T08:02:22.151Z,81.05
2016-10-26T08:03:02.636Z,83.54
2016-10-26T08:03:43.077Z,80.87
2016-10-26T08:04:23.501Z,82.11
2016-10-26T08:05:04.060Z,79.81
2016-10-26T08:05:44.530Z,79.43
2016-10-26T08:06:24.962Z,77.7
2016-10-26T08:07:05.421Z,85.55
2016-10-26T08:07:45.798Z,88.33
2016-10-26T08:08:30.272Z,89.04
2016-10-26T08:09:10.703Z,89.04
2016-10-26T08:09:53.310Z,88.66
2016-10-26T08:10:34.610Z,87.03
2016-10-26T08:13:03.180Z,85.79
2016-10-26T08:13:48.352Z,84.06
2016-10-26T08:14:28.814Z,83.3
2016-10-26T08:15:14.671Z,82.63
2016-10-26T08:18:07.470Z,84.74
2016-10-26T08:18:55.145Z,83.2
2016-10-26T08:19:46.415Z,81.1
2016-10-26T08:22:08.144Z,83.78
2016-10-26T08:22:57.195Z,84.39
2016-10-26T08:23:42.130Z,83.97
2016-10-26T08:24:26.396Z,83.11
2016-10-26T08:25:07.752Z,81.86
2016-10-26T08:25:47.921Z,80.9
2016-10-26T08:26:28.648Z,79.37
2016-10-26T08:27:09.025Z,80.9
2016-10-26T08:27:49.777Z,80.9
2016-10-26T08:28:30.290Z,80.14
2016-10-26T08:29:10.692Z,80.52
2016-10-26T08:29:51.190Z,76.98
2016-10-26T08:30:31.631Z,76.89
2016-10-26T08:49:12.150Z,80.71
2016-10-26T08:49:52.654Z,80.51
2016-10-26T08:50:33.016Z,78.4
2016-10-26T08:51:13.516Z,81.75
2016-10-26T08:51:53.956Z,81.46
2016-10-26T08:52:34.344Z,80.89
2016-10-26T08:53:14.807Z,79.36
2016-10-26T08:53:55.268Z,80.93
2016-10-26T08:54:35.683Z,78.53
2016-10-26T08:55:16.147Z,76.52
2016-10-26T08:55:56.594Z,79.78
2016-10-26T08:56:37.061Z,84
2016-10-26T08:57:17.447Z,83.14
2016-10-26T08:57:58.496Z,85.63
2016-10-26T08:58:39.023Z,82.27
2016-10-26T08:59:19.795Z,81.6
2016-10-26T09:00:00.267Z,81.31
2016-10-26T09:00:40.780Z,79.78
2016-10-26T09:01:21.245Z,78.34
2016-10-26T09:02:01.721Z,78.53
2016-10-26T09:02:42.179Z,76.14
2016-10-26T09:03:22.605Z,78.25
2016-10-26T09:04:03.122Z,81.89
2016-10-26T09:04:43.536Z,79.49
2016-10-26T09:05:23.983Z,77.09
2016-10-26T09:06:04.412Z,81.12
2016-10-26T09:06:44.862Z,75.75
2016-10-26T09:07:25.348Z,75.37
2016-10-26T09:08:05.775Z,77.48
2016-10-26T09:08:46.178Z,78.15
2016-10-26T09:09:26.626Z,78.72
2016-10-26T09:10:07.096Z,78.34
2016-10-26T09:10:47.513Z,79.88
2016-10-26T09:11:28.106Z,78.15
2016-10-26T09:12:08.593Z,76.81
2016-10-26T09:12:50.866Z,75.08
2016-10-26T09:13:31.170Z,76.52
2016-10-26T09:14:11.709Z,76.32
2016-10-26T09:14:52.123Z,74.98
2016-10-26T09:15:32.639Z,77.86
2016-10-26T09:16:13.087Z,77.76
2016-10-26T09:16:53.570Z,76.23
2016-10-26T09:17:33.953Z,73.55
2016-10-26T09:18:14.434Z,74.16
2016-10-26T09:18:54.834Z,75.31
2016-10-26T09:19:35.310Z,76.46
2016-10-26T09:20:15.769Z,75.95
2016-10-26T09:20:56.188Z,76.14
2016-10-26T09:21:36.592Z,76.14
2016-10-26T09:22:17.072Z,75.95
2016-10-26T09:22:57.477Z,74.79
2016-10-26T09:23:37.994Z,77.29
2016-10-26T09:24:18.479Z,76.52
2016-10-26T09:24:58.839Z,75.02
2016-10-26T09:25:39.289Z,73.58
2016-10-26T09:26:19.801Z,73.2
2016-10-26T09:27:00.230Z,72.91
2016-10-26T09:27:40.738Z,74.73
2016-10-26T09:28:21.157Z,77.13
2016-10-26T09:29:01.624Z,74.54
2016-10-26T09:29:42.343Z,73.2
2016-10-26T09:30:30.981Z,72.53
2016-10-26T09:31:11.386Z,71.37
2016-10-26T09:31:51.899Z,71.51
2016-10-26T09:32:32.331Z,71.41
2016-10-26T09:33:12.758Z,71.37
2016-10-26T09:33:53.207Z,70.51
2016-10-26T09:34:33.728Z,70.32
2016-10-26T09:35:14.282Z,70.74
2016-10-26T09:35:54.586Z,69.07
2016-10-26T09:38:11.378Z,71.09
2016-10-26T09:38:52.018Z,70.9
2016-10-26T09:39:32.520Z,70.51
2016-10-26T09:40:12.917Z,69.26
2016-10-26T09:40:53.455Z,67.63
2016-10-26T09:42:43.826Z,71.57
2016-10-26T09:43:24.850Z,71.47
2016-10-26T09:44:11.234Z,70.99
2016-10-26T09:46:01.850Z,71.95
2016-10-26T09:46:49.267Z,72.63
2016-10-26T09:47:29.639Z,72.63
2016-10-26T09:48:10.907Z,71.76
2016-10-26T09:50:03.419Z,71.66
2016-10-26T09:50:46.401Z,74.29
2016-10-26T09:51:26.788Z,74.35
2016-10-26T09:52:07.242Z,73.43
2016-10-26T09:52:47.645Z,71.57
2016-10-26T09:53:28.128Z,68.02
2016-10-26T09:54:08.604Z,69.84
2016-10-26T09:54:49.370Z,76.02
2016-10-26T09:55:30.033Z,78.32
2016-10-26T09:56:10.740Z,76.79
2016-10-26T09:56:51.186Z,75.06
2016-10-26T09:57:31.695Z,74.01
2016-10-26T09:58:15.268Z,74.19
2016-10-26T09:58:55.658Z,74.87
2016-10-26T09:59:36.189Z,76.59
2016-10-26T10:00:16.667Z,75.92
2016-10-26T10:00:57.099Z,74.96
2016-10-26T10:01:42.139Z,74.87
2016-10-26T10:02:28.117Z,75.63
2016-10-26T10:03:09.186Z,76.12
2016-10-26T10:03:50.373Z,74.19
2016-10-26T10:04:30.821Z,74.01
2016-10-26T10:05:11.314Z,73.33
2016-10-26T10:05:51.808Z,74.01
2016-10-26T10:07:56.959Z,71.47
2016-10-26T10:08:45.966Z,73.49
2016-10-26T10:09:34.339Z,73.58
2016-10-26T10:11:56.958Z,74.48
2016-10-26T10:12:44.234Z,73.43
2016-10-26T10:13:29.839Z,73.33
2016-10-26T10:14:19.436Z,72.56
2016-10-26T10:15:07.747Z,71.89
2016-10-26T10:15:52.456Z,70.26
2016-10-26T10:16:32.767Z,70.64
2016-10-26T10:17:13.351Z,73.04
2016-10-26T10:17:53.780Z,73.08
2016-10-26T10:18:34.170Z,69.2
2016-10-26T10:19:14.590Z,66.33
2016-10-26T10:19:55.191Z,66.77
2016-10-26T10:20:35.601Z,68.44
2016-10-26T10:21:16.049Z,69.68
2016-10-26T10:21:56.465Z,68.05
2016-10-26T10:22:36.908Z,67.8
2016-10-26T10:23:18.470Z,66.74
2016-10-26T10:23:58.742Z,66.23
2016-10-26T10:24:41.567Z,66.03
2016-10-26T10:25:21.825Z,66.55
2016-10-26T10:26:03.004Z,66.64
2016-10-26T10:26:43.932Z,67.7
2016-10-26T10:27:25.945Z,68.37
2016-10-26T10:28:08.097Z,67.64
2016-10-26T11:02:13.100Z,65.14
2016-10-26T11:03:02.072Z,64.25
2016-10-26T11:03:43.323Z,63.38
2016-10-26T11:04:24.168Z,62.61
2016-10-26T11:05:05.550Z,62.99
2016-10-26T11:05:45.112Z,65.01
2016-10-26T11:06:25.523Z,66.55
2016-10-26T11:07:05.977Z,64.34
2016-10-26T11:07:49.793Z,64.22
2016-10-26T13:43:47.185Z,57.72
2016-10-26T13:44:27.726Z,57.53
2016-10-26T13:45:08.138Z,57.72
2016-10-26T13:45:48.533Z,58.87
2016-10-26T13:46:29.027Z,58.87
2016-10-26T13:47:09.489Z,58.01
2016-10-26T13:47:49.931Z,58.39
2016-10-26T13:48:30.408Z,57.82
2016-10-26T13:49:10.864Z,57.72
2016-10-26T13:49:51.320Z,58.01
2016-10-26T13:50:31.780Z,58.2
2016-10-26T13:51:12.258Z,57.79
2016-10-26T13:51:52.700Z,57.6
2016-10-26T13:52:33.175Z,58.65
2016-10-26T13:53:13.665Z,59.13
2016-10-26T13:53:54.097Z,59.23
2016-10-26T13:54:34.667Z,59.13
2016-10-26T13:55:15.143Z,58.27
2016-10-26T13:55:55.677Z,58.27
2016-10-26T13:56:36.160Z,58.65
2016-10-26T13:57:16.806Z,58.75
2016-10-26T13:57:57.049Z,58.84
2016-10-26T13:58:37.495Z,59.42
2016-10-26T13:59:17.923Z,58.84
2016-10-26T13:59:58.380Z,59.13
2016-10-26T14:00:38.827Z,59.04
2016-10-26T14:01:19.299Z,58.75
2016-10-26T14:01:59.731Z,59.04
2016-10-26T14:02:40.197Z,59.04
2016-10-26T14:03:20.655Z,58.65
2016-10-26T14:04:01.163Z,58.78
2016-10-26T14:04:41.636Z,58.78
2016-10-26T14:05:22.206Z,58.87
2016-10-26T14:06:02.729Z,58.59
2016-10-26T14:06:43.163Z,57.63
2016-10-26T14:07:23.618Z,57.24
2016-10-26T14:08:04.041Z,57.92
2016-10-26T14:08:44.588Z,58.3
2016-10-26T14:09:25.070Z,58.11
2016-10-26T14:10:05.562Z,57.82
2016-10-26T14:10:46.018Z,57.72
2016-10-26T14:11:26.478Z,57.89
2016-10-26T14:12:06.916Z,57.63
2016-10-26T14:12:51.313Z,57.63
2016-10-26T14:13:27.878Z,57.89
2016-10-26T14:14:08.361Z,57.72
2016-10-26T14:14:48.838Z,58.27
2016-10-26T14:15:29.269Z,58.78
2016-10-26T14:16:09.704Z,57.89
2016-10-26T14:16:50.207Z,57.92
2016-10-26T14:17:30.614Z,57.79
2016-10-26T14:18:11.083Z,59.04
2016-10-26T14:18:51.491Z,58.75
2016-10-26T14:19:31.957Z,58.3
2016-10-26T14:20:12.476Z,58.11
2016-10-26T14:20:52.860Z,58.37
2016-10-26T14:21:33.353Z,57.98
2016-10-26T14:22:13.822Z,58.27
2016-10-26T14:22:54.304Z,57.7
2016-10-26T14:23:34.769Z,58.3
2016-10-26T14:24:15.239Z,58.78
2016-10-26T14:24:55.738Z,58.01
2016-10-26T14:25:36.223Z,58.01
2016-10-26T14:26:16.593Z,59.04
2016-10-26T14:26:57.062Z,58.69
2016-10-26T14:27:37.530Z,58.27
2016-10-26T14:28:18.017Z,57.63
2016-10-26T14:28:58.485Z,57.21
2016-10-26T14:29:38.969Z,57.41
2016-10-26T14:30:19.424Z,57.79
2016-10-26T14:30:59.864Z,57.7
2016-10-26T14:31:40.308Z,57.79
2016-10-26T14:32:20.788Z,57.5
2016-10-26T14:33:01.226Z,57.7
2016-10-26T14:33:41.648Z,57.5
2016-10-26T14:34:22.084Z,57.79
2016-10-26T14:35:02.565Z,57.21
2016-10-26T14:35:43.027Z,57.76
2016-10-26T14:36:23.448Z,57.67
2016-10-26T14:37:03.890Z,57.48
2016-10-26T14:37:44.376Z,57.86
2016-10-26T14:38:24.822Z,57.76
2016-10-26T14:39:05.276Z,58.15
2016-10-26T14:39:45.743Z,58.15
2016-10-26T14:40:26.249Z,58.05
2016-10-26T14:41:06.674Z,58.81
2016-10-26T14:41:47.140Z,57.86
2016-10-26T14:42:27.577Z,58.24
2016-10-26T14:43:08.048Z,58.91
2016-10-26T14:43:48.473Z,59.04
2016-10-26T14:44:28.941Z,58.75
2016-10-26T14:45:09.379Z,58.84
2016-10-26T14:45:49.826Z,58.65
2016-10-26T14:46:30.299Z,59.01
2016-10-26T14:47:10.743Z,58.37
2016-10-26T14:47:51.217Z,58.17
2016-10-26T14:48:32.820Z,58.34
2016-10-26T14:49:13.298Z,58.24
2016-10-26T14:49:58.141Z,58.91
2016-10-26T14:50:38.165Z,59.11
2016-10-26T14:51:18.626Z,59.11
2016-10-26T14:51:59.061Z,58.72
2016-10-26T14:52:39.514Z,58.72
2016-10-26T14:53:19.988Z,59.3
2016-10-26T14:54:00.418Z,59.39
2016-10-26T14:54:40.892Z,59.39
2016-10-26T14:55:21.280Z,59.58
2016-10-26T14:56:01.738Z,59.97
2016-10-26T14:56:42.142Z,59.58
2016-10-26T14:57:22.631Z,59.97
2016-10-26T14:58:03.068Z,59.11
2016-10-26T14:58:43.675Z,59.39
2016-10-26T14:59:24.128Z,60.25
2016-10-26T15:00:04.550Z,59.2
2016-10-26T15:00:44.975Z,59.77
2016-10-26T15:01:25.445Z,59.97
2016-10-26T15:02:05.861Z,59.97
2016-10-26T15:02:46.307Z,59.48
2016-10-26T15:03:26.860Z,59.11
2016-10-26T15:04:07.239Z,58.98
2016-10-26T15:04:47.689Z,59.45
2016-10-26T15:05:28.144Z,59.65
2016-10-26T15:06:08.584Z,59.84
2016-10-26T15:06:49.045Z,59.84
2016-10-26T15:07:29.471Z,60.22
2016-10-26T15:08:09.888Z,59.84
2016-10-26T15:08:50.401Z,59.84
2016-10-26T15:09:32.333Z,59.75
2016-10-26T15:10:12.907Z,60.03
2016-10-26T15:10:54.827Z,60.03
2016-10-26T15:11:35.284Z,60.22
2016-10-26T15:12:15.738Z,60.13
2016-10-26T15:12:56.235Z,60.22
2016-10-26T15:13:36.653Z,59.97
2016-10-26T15:14:17.127Z,60.22
2016-10-26T15:14:57.568Z,60.41
2016-10-26T15:15:37.996Z,60.99
2016-10-26T15:16:18.447Z,60.89
2016-10-26T15:16:58.943Z,60.89
2016-10-26T15:17:39.370Z,60.89
2016-10-26T15:18:19.885Z,60.61
2016-10-26T15:19:03.377Z,60.8
2016-10-26T15:19:43.798Z,61.66
2016-10-26T15:20:24.279Z,61.28
2016-10-26T15:21:04.757Z,61.37
2016-10-26T15:21:45.202Z,60.99
2016-10-26T15:22:25.613Z,60.89
2016-10-26T15:23:06.068Z,60.99
2016-10-26T15:23:46.496Z,60.89
2016-10-26T15:24:27.065Z,60.99
2016-10-26T15:25:07.347Z,60.61
2016-10-26T15:25:47.836Z,61.37
2016-10-26T15:26:28.258Z,61.47
2016-10-26T15:27:08.729Z,61.66
2016-10-26T15:27:49.237Z,61.85
2016-10-26T15:28:29.653Z,61.66
2016-10-26T15:29:10.065Z,61.37
2016-10-26T15:29:50.505Z,61.76
2016-10-26T15:30:30.918Z,61.54
2016-10-26T15:31:11.354Z,61.54
2016-10-26T15:31:51.803Z,61.63
2016-10-26T15:32:32.230Z,62.3
2016-10-26T15:33:12.709Z,62.3
2016-10-26T15:33:53.130Z,62.3
2016-10-26T15:34:33.552Z,62.68
2016-10-26T15:35:14.006Z,62.59
2016-10-26T15:35:54.449Z,62.97
2016-10-26T15:36:34.889Z,62.77
2016-10-26T15:37:15.341Z,62.68
2016-10-26T15:37:55.779Z,62.68
2016-10-26T15:38:36.193Z,62.77
2016-10-26T15:39:16.642Z,62.97
2016-10-26T15:39:57.132Z,62.77
2016-10-26T15:40:37.572Z,63.16
2016-10-26T15:41:18.013Z,62.87
2016-10-26T15:41:58.437Z,63.64
2016-10-26T15:42:38.912Z,63.16
2016-10-26T15:43:19.327Z,63.45
2016-10-26T15:43:59.773Z,63.45
2016-10-26T15:44:40.225Z,62.87
2016-10-26T15:45:20.703Z,63.54
2016-10-26T15:46:01.111Z,63.45
2016-10-26T15:46:41.602Z,63.16
2016-10-26T15:47:22.019Z,63.16
2016-10-26T15:48:02.463Z,62.77
2016-10-26T15:48:42.905Z,62.94
2016-10-26T15:49:23.328Z,62.77
2016-10-26T15:50:03.807Z,63.32
2016-10-26T15:50:44.375Z,63.32
2016-10-26T15:51:24.817Z,63.13
2016-10-26T15:53:58.526Z,63.99
2016-10-26T15:54:39.182Z,63.89
2016-10-26T15:55:19.653Z,63.89
2016-10-26T15:56:00.101Z,64.09
2016-10-26T15:56:40.581Z,64.95
2016-10-26T15:57:20.983Z,64.95
2016-10-26T15:58:01.437Z,65.33
2016-10-26T15:58:41.875Z,66.09
2016-10-26T15:59:22.339Z,66
2016-10-26T16:00:02.766Z,65.33
2016-10-26T16:00:43.312Z,64.75
2016-10-26T16:01:23.708Z,65.42
2016-10-26T16:02:04.158Z,65.42
2016-10-26T16:02:44.570Z,64.47
2016-10-26T16:10:11.765Z,64.75
2016-10-26T16:10:52.254Z,65.33
2016-10-26T16:11:32.731Z,65.26
2016-10-26T16:12:13.194Z,65.55
2016-10-26T16:12:53.714Z,65.26
2016-10-26T16:13:34.103Z,65.61
2016-10-26T16:14:14.549Z,65.26
2016-10-26T16:14:54.992Z,64.88
2016-10-26T16:15:35.458Z,64.69
2016-10-26T16:16:15.926Z,63.89
2016-10-26T16:16:56.365Z,63.32
2016-10-26T16:17:36.773Z,63.51
2016-10-26T16:18:17.218Z,63.03
2016-10-26T16:18:57.659Z,62.84
2016-10-26T16:19:38.087Z,62.74
2016-10-26T16:20:18.578Z,62.84
2016-10-26T16:20:59.004Z,63.6
2016-10-26T16:21:39.454Z,64.18
2016-10-26T16:22:19.863Z,63.51
2016-10-26T16:23:00.349Z,63.03
2016-10-26T16:23:40.798Z,63.13
2016-10-26T16:24:21.252Z,63.32
2016-10-26T16:25:01.633Z,63.99
2016-10-26T16:25:42.059Z,63.51
2016-10-26T16:26:22.492Z,63.13
2016-10-26T16:27:02.924Z,63.51
2016-10-26T16:27:43.382Z,63.51
2016-10-26T16:28:23.782Z,64.18
2016-10-26T16:30:42.994Z,63.99
2016-10-26T16:32:45.459Z,64.66
2016-10-26T16:33:43.902Z,63.6
2016-10-26T16:34:42.362Z,63.51
2016-10-26T16:35:40.847Z,63.23
2016-10-26T16:36:39.282Z,63.51
2016-10-26T16:37:37.751Z,63.86
2016-10-26T16:38:36.227Z,64.15
2016-10-26T16:39:34.674Z,64.62
2016-10-26T16:40:33.122Z,64.91
2016-10-26T16:41:31.578Z,64.82
2016-10-26T16:42:30.044Z,65.11
2016-10-26T16:43:28.518Z,65.3
2016-10-26T16:44:26.958Z,64.82
2016-10-26T16:45:25.419Z,64.43
2016-10-26T16:47:25.334Z,66.06
2016-10-26T16:48:23.844Z,66.44
2016-10-26T16:49:22.300Z,66.63
2016-10-26T16:50:20.767Z,66.83
2016-10-26T16:51:19.232Z,66.35
2016-10-26T16:52:17.691Z,66.16
2016-10-26T16:53:16.215Z,66.44
2016-10-26T16:54:14.610Z,66.63
2016-10-26T16:55:13.057Z,66.54
2016-10-26T16:56:11.484Z,66.35
2016-10-26T16:57:09.954Z,65.48
2016-10-26T16:58:08.394Z,65.3
2016-10-26T16:59:07.065Z,64.72
2016-10-26T17:00:05.368Z,64.91
2016-10-26T17:01:04.112Z,65.39
2016-10-26T17:02:02.962Z,66.25
2016-10-26T17:03:01.433Z,66.73
2016-10-26T17:03:59.871Z,67.59
2016-10-26T17:04:58.304Z,67.49
2016-10-26T17:05:56.945Z,67.69
2016-10-26T17:06:55.361Z,67.97
2016-10-26T17:07:53.862Z,68.45
2016-10-26T17:08:52.311Z,68.16